createdAt,value
2018-12-24T00:00:37.812Z,88.81
2018-12-24T00:01:37.809Z,88.53
2018-12-24T00:02:37.835Z,88.62
2018-12-24T00:03:37.860Z,89.00
2018-12-24T00:04:37.873Z,89.86
2018-12-24T00:05:37.882Z,89.00
2018-12-24T00:06:37.935Z,88.09
2018-12-24T00:07:37.915Z,88.05
2018-12-24T00:08:37.934Z,88.43
2018-12-24T00:09:37.957Z,88.43
2018-12-24T00:10:38.038Z,89.00
2018-12-24T00:11:37.982Z,89.42
2018-12-24T00:12:38.017Z,88.95
2018-12-24T00:13:38.027Z,89.14
2018-12-24T00:14:38.060Z,89.23
2018-12-24T00:15:38.097Z,88.85
2018-12-24T00:16:38.071Z,88.47
2018-12-24T00:17:38.091Z,89.33
2018-12-24T00:18:38.113Z,89.04
2018-12-24T00:19:38.141Z,88.85
2018-12-24T00:20:38.137Z,88.76
2018-12-24T00:21:38.154Z,88.76
2018-12-24T00:22:38.172Z,88.67
2018-12-24T00:23:38.201Z,89.23
2018-12-24T00:24:38.204Z,88.19
2018-12-24T00:25:38.226Z,89.52
2018-12-24T00:26:38.243Z,88.62
2018-12-24T00:27:38.261Z,88.81
2018-12-24T00:28:38.278Z,88.38
2018-12-24T00:29:38.290Z,88.67
2018-12-24T00:30:38.311Z,88.67
2018-12-24T00:31:38.354Z,88.38
2018-12-24T00:32:38.362Z,88.47
2018-12-24T00:33:38.389Z,88.28
2018-12-24T00:34:38.374Z,87.57
2018-12-24T00:35:38.392Z,87.38
2018-12-24T00:36:38.428Z,87.95
2018-12-24T00:37:38.443Z,87.67
2018-12-24T00:38:38.453Z,86.91
2018-12-24T00:39:38.470Z,87.29
2018-12-24T00:40:38.476Z,87.19
2018-12-24T00:41:38.491Z,87.38
2018-12-24T00:42:38.532Z,87.38
2018-12-24T00:43:38.535Z,87.38
2018-12-24T00:44:38.622Z,87.62
2018-12-24T00:45:38.560Z,88.24
2018-12-24T00:46:38.596Z,87.95
2018-12-24T00:47:38.595Z,88.28
2018-12-24T00:48:38.657Z,88.05
2018-12-24T00:49:38.639Z,88.15
2018-12-24T00:50:38.654Z,87.29
2018-12-24T00:51:38.672Z,87.67
2018-12-24T00:52:38.679Z,87.38
2018-12-24T00:53:38.743Z,87.38
2018-12-24T00:54:38.715Z,88.34
2018-12-24T00:55:38.736Z,87.86
2018-12-24T00:56:38.753Z,86.72
2018-12-24T00:57:38.773Z,87.57
2018-12-24T00:58:38.857Z,86.53
2018-12-24T00:59:38.811Z,87.29
2018-12-24T01:00:38.833Z,87.29
2018-12-24T01:01:38.838Z,87.29
2018-12-24T01:02:38.878Z,88.24
2018-12-24T01:03:38.872Z,88.43
2018-12-24T01:04:38.889Z,88.34
2018-12-24T01:05:38.917Z,88.76
2018-12-24T01:06:38.941Z,87.76
2018-12-24T01:07:38.955Z,87.38
2018-12-24T01:08:38.965Z,87.52
2018-12-24T01:09:38.982Z,86.24
2018-12-24T01:10:38.986Z,86.53
2018-12-24T01:11:39.002Z,86.34
2018-12-24T01:12:39.051Z,86.43
2018-12-24T01:13:39.095Z,86.63
2018-12-24T01:14:39.063Z,86.43
2018-12-24T01:15:39.077Z,87.67
2018-12-24T01:16:39.091Z,87.29
2018-12-24T01:17:39.108Z,88.34
2018-12-24T01:18:39.124Z,87.90
2018-12-24T01:19:39.139Z,87.71
2018-12-24T01:20:39.172Z,88.57
2018-12-24T01:21:39.188Z,89.04
2018-12-24T01:22:39.206Z,87.95
2018-12-24T01:23:39.215Z,88.09
2018-12-24T01:24:39.221Z,87.86
2018-12-24T01:25:39.242Z,88.38
2018-12-24T01:26:39.259Z,87.90
2018-12-24T01:27:39.281Z,87.57
2018-12-24T01:28:39.301Z,88.19
2018-12-24T01:29:39.312Z,88.05
2018-12-24T01:30:39.327Z,88.05
2018-12-24T01:31:39.372Z,86.82
2018-12-24T01:32:39.361Z,86.24
2018-12-24T01:33:39.373Z,87.67
2018-12-24T01:34:39.392Z,86.72
2018-12-24T01:35:39.411Z,87.10
2018-12-24T01:36:39.562Z,87.19
2018-12-24T01:37:39.452Z,87.52
2018-12-24T01:38:39.463Z,87.01
2018-12-24T01:39:39.484Z,85.96
2018-12-24T01:40:39.492Z,85.86
2018-12-24T01:41:39.511Z,85.77
2018-12-24T01:42:39.525Z,85.68
2018-12-24T01:43:39.547Z,86.34
2018-12-24T01:44:39.569Z,85.58
2018-12-24T01:45:39.576Z,85.30
2018-12-24T01:46:39.642Z,84.53
2018-12-24T01:47:39.626Z,84.91
2018-12-24T01:48:39.627Z,84.25
2018-12-24T01:49:39.642Z,85.20
2018-12-24T01:50:39.686Z,84.44
2018-12-24T01:51:39.686Z,84.53
2018-12-24T01:52:39.707Z,84.06
2018-12-24T01:53:39.730Z,83.78
2018-12-24T01:54:39.730Z,83.97
2018-12-24T01:55:39.776Z,83.87
2018-12-24T01:56:39.768Z,83.20
2018-12-24T01:57:39.791Z,83.87
2018-12-24T01:58:39.841Z,83.39
2018-12-24T01:59:39.813Z,83.78
2018-12-24T02:00:39.847Z,83.78
2018-12-24T02:01:39.848Z,83.01
2018-12-24T02:02:39.863Z,82.64
2018-12-24T02:03:39.891Z,82.92
2018-12-24T02:04:39.911Z,83.11
2018-12-24T02:05:39.921Z,83.68
2018-12-24T02:06:39.943Z,83.68
2018-12-24T02:07:39.989Z,83.20
2018-12-24T02:08:39.975Z,83.30
2018-12-24T02:09:39.999Z,83.87
2018-12-24T02:10:40.006Z,83.78
2018-12-24T02:11:40.040Z,84.16
2018-12-24T02:12:42.385Z,84.25
2018-12-24T02:13:40.068Z,83.20
2018-12-24T02:14:40.076Z,83.97
2018-12-24T02:15:40.095Z,84.06
2018-12-24T02:16:40.110Z,83.78
2018-12-24T02:17:40.145Z,83.68
2018-12-24T02:18:40.139Z,83.39
2018-12-24T02:19:40.152Z,84.25
2018-12-24T02:20:40.191Z,84.06
2018-12-24T02:21:40.212Z,82.73
2018-12-24T02:22:40.215Z,83.30
2018-12-24T02:23:40.220Z,83.78
2018-12-24T02:24:40.233Z,83.68
2018-12-24T02:25:40.255Z,83.68
2018-12-24T02:26:40.271Z,83.87
2018-12-24T02:27:40.283Z,83.20
2018-12-24T02:28:40.303Z,83.20
2018-12-24T02:29:40.334Z,83.39
2018-12-24T02:30:40.335Z,83.68
2018-12-24T02:31:40.354Z,83.11
2018-12-24T02:32:40.372Z,81.78
2018-12-24T02:33:40.384Z,82.35
2018-12-24T02:34:40.405Z,81.97
2018-12-24T02:35:40.436Z,81.87
2018-12-24T02:36:40.436Z,82.45
2018-12-24T02:37:40.458Z,82.45
2018-12-24T02:38:40.470Z,82.92
2018-12-24T02:39:40.485Z,82.92
2018-12-24T02:40:40.508Z,82.73
2018-12-24T02:41:40.529Z,81.97
2018-12-24T02:42:40.535Z,82.26
2018-12-24T02:43:40.572Z,82.07
2018-12-24T02:44:40.566Z,82.35
2018-12-24T02:45:40.583Z,82.64
2018-12-24T02:46:40.604Z,82.73
2018-12-24T02:47:40.629Z,82.73
2018-12-24T02:48:40.670Z,83.49
2018-12-24T02:49:40.656Z,83.53
2018-12-24T02:50:40.671Z,83.72
2018-12-24T02:51:40.692Z,84.20
2018-12-24T02:52:40.699Z,84.01
2018-12-24T02:53:40.727Z,82.92
2018-12-24T02:54:40.742Z,82.82
2018-12-24T02:55:40.752Z,83.20
2018-12-24T02:56:40.766Z,82.26
2018-12-24T02:57:40.789Z,82.07
2018-12-24T02:58:40.836Z,82.64
2018-12-24T02:59:40.832Z,82.73
2018-12-24T03:00:40.839Z,82.35
2018-12-24T03:01:40.872Z,81.97
2018-12-24T03:02:40.868Z,81.87
2018-12-24T03:03:40.887Z,82.54
2018-12-24T03:04:40.900Z,83.01
2018-12-24T03:05:40.931Z,82.54
2018-12-24T03:06:40.974Z,83.30
2018-12-24T03:07:40.990Z,83.97
2018-12-24T03:08:40.978Z,84.06
2018-12-24T03:09:40.985Z,84.25
2018-12-24T03:10:41.043Z,84.10
2018-12-24T03:11:41.018Z,84.34
2018-12-24T03:12:41.044Z,84.72
2018-12-24T03:13:41.081Z,84.25
2018-12-24T03:14:41.111Z,85.62
2018-12-24T03:15:41.095Z,86.67
2018-12-24T03:16:41.121Z,85.81
2018-12-24T03:17:41.126Z,85.62
2018-12-24T03:18:41.139Z,85.81
2018-12-24T03:19:41.188Z,84.48
2018-12-24T03:20:41.177Z,84.20
2018-12-24T03:21:41.203Z,85.43
2018-12-24T03:22:41.210Z,85.34
2018-12-24T03:23:41.225Z,86.10
2018-12-24T03:24:41.245Z,86.63
2018-12-24T03:25:41.290Z,85.49
2018-12-24T03:26:41.275Z,85.86
2018-12-24T03:27:41.295Z,85.77
2018-12-24T03:28:41.315Z,85.96
2018-12-24T03:29:41.323Z,86.24
2018-12-24T03:30:41.383Z,86.43
2018-12-24T03:31:41.370Z,85.86
2018-12-24T03:32:41.406Z,86.53
2018-12-24T03:33:41.390Z,86.95
2018-12-24T03:34:41.410Z,86.47
2018-12-24T03:35:41.442Z,87.38
2018-12-24T03:36:41.460Z,85.86
2018-12-24T03:37:41.525Z,85.96
2018-12-24T03:38:41.578Z,86.95
2018-12-24T03:39:41.519Z,87.01
2018-12-24T03:40:41.706Z,86.91
2018-12-24T03:41:41.537Z,86.47
2018-12-24T03:42:41.620Z,86.57
2018-12-24T03:43:41.574Z,86.15
2018-12-24T03:44:41.583Z,85.30
2018-12-24T03:45:41.728Z,85.11
2018-12-24T03:46:41.654Z,84.72
2018-12-24T03:47:41.645Z,85.01
2018-12-24T03:48:41.656Z,85.68
2018-12-24T03:49:41.662Z,85.81
2018-12-24T03:50:41.819Z,85.77
2018-12-24T03:51:41.699Z,85.49
2018-12-24T03:52:41.717Z,85.77
2018-12-24T03:53:41.779Z,85.20
2018-12-24T03:54:41.742Z,85.39
2018-12-24T03:55:41.762Z,85.68
2018-12-24T03:56:41.781Z,85.39
2018-12-24T03:57:41.803Z,85.49
2018-12-24T03:58:41.841Z,86.43
2018-12-24T03:59:41.908Z,86.29
2018-12-24T04:00:41.846Z,86.38
2018-12-24T04:01:41.865Z,86.95
2018-12-24T04:02:41.897Z,87.05
2018-12-24T04:03:41.911Z,87.71
2018-12-24T04:04:41.919Z,85.91
2018-12-24T04:05:41.942Z,87.10
2018-12-24T04:06:41.962Z,87.01
2018-12-24T04:07:42.002Z,86.43
2018-12-24T04:08:41.987Z,86.53
2018-12-24T04:09:42.004Z,86.82
2018-12-24T04:10:42.029Z,87.14
2018-12-24T04:11:42.048Z,86.19
2018-12-24T04:12:42.050Z,87.19
2018-12-24T04:13:42.062Z,86.57
2018-12-24T04:14:42.089Z,87.48
2018-12-24T04:15:42.152Z,86.24
2018-12-24T04:16:42.150Z,87.48
2018-12-24T04:17:42.129Z,87.57
2018-12-24T04:18:42.197Z,86.72
2018-12-24T04:19:42.167Z,88.05
2018-12-24T04:20:42.191Z,88.09
2018-12-24T04:21:42.198Z,87.81
2018-12-24T04:22:42.320Z,88.19
2018-12-24T04:23:42.245Z,88.00
2018-12-24T04:24:42.269Z,88.19
2018-12-24T04:25:42.305Z,89.61
2018-12-24T04:26:42.288Z,89.23
2018-12-24T04:27:42.360Z,88.95
2018-12-24T04:28:42.340Z,88.57
2018-12-24T04:29:42.387Z,88.05
2018-12-24T04:30:42.359Z,89.67
2018-12-24T04:31:42.376Z,88.34
2018-12-24T04:32:42.392Z,88.90
2018-12-24T04:33:42.404Z,88.62
2018-12-24T04:34:42.423Z,89.38
2018-12-24T04:35:42.439Z,89.95
2018-12-24T04:36:42.463Z,88.71
2018-12-24T04:37:42.486Z,88.81
2018-12-24T04:38:42.517Z,89.57
2018-12-24T04:39:42.501Z,90.33
2018-12-24T04:40:42.518Z,89.67
2018-12-24T04:41:42.552Z,89.90
2018-12-24T04:42:42.566Z,90.14
2018-12-24T04:43:42.574Z,88.95
2018-12-24T04:44:42.600Z,89.28
2018-12-24T04:45:42.652Z,89.19
2018-12-24T04:46:42.632Z,90.80
2018-12-24T04:47:42.637Z,89.47
2018-12-24T04:48:42.659Z,89.00
2018-12-24T04:49:42.679Z,89.47
2018-12-24T04:50:42.701Z,90.14
2018-12-24T04:51:42.710Z,89.76
2018-12-24T04:52:42.761Z,91.85
2018-12-24T04:53:42.811Z,89.95
2018-12-24T04:54:42.776Z,91.09
2018-12-24T04:55:42.786Z,91.09
2018-12-24T04:56:42.791Z,89.95
2018-12-24T04:57:42.807Z,90.23
2018-12-24T04:58:42.827Z,90.14
2018-12-24T04:59:42.854Z,90.99
2018-12-24T05:00:42.870Z,90.33
2018-12-24T05:01:42.881Z,91.47
2018-12-24T05:02:42.894Z,91.28
2018-12-24T05:03:42.899Z,89.95
2018-12-24T05:04:42.924Z,90.80
2018-12-24T05:05:42.964Z,89.95
2018-12-24T05:06:42.966Z,90.90
2018-12-24T05:07:42.976Z,90.23
2018-12-24T05:08:42.985Z,89.47
2018-12-24T05:09:43.004Z,89.28
2018-12-24T05:10:43.019Z,89.95
2018-12-24T05:11:43.038Z,90.52
2018-12-24T05:12:43.054Z,89.57
2018-12-24T05:13:43.067Z,88.90
2018-12-24T05:14:43.088Z,89.67
2018-12-24T05:15:43.103Z,88.48
2018-12-24T05:16:43.117Z,88.86
2018-12-24T05:17:43.142Z,89.38
2018-12-24T05:18:43.152Z,88.81
2018-12-24T05:19:43.165Z,89.76
2018-12-24T05:20:43.202Z,88.29
2018-12-24T05:21:43.200Z,88.20
2018-12-24T05:22:43.234Z,88.76
2018-12-24T05:23:43.230Z,89.67
2018-12-24T05:24:43.252Z,88.20
2018-12-24T05:25:43.269Z,88.29
2018-12-24T05:26:43.292Z,88.48
2018-12-24T05:27:43.315Z,88.48
2018-12-24T05:28:43.327Z,88.67
2018-12-24T05:29:43.327Z,88.57
2018-12-24T05:30:43.350Z,88.29
2018-12-24T05:31:43.365Z,88.10
2018-12-24T05:32:43.378Z,88.67
2018-12-24T05:33:43.396Z,88.95
2018-12-24T05:34:43.416Z,88.76
2018-12-24T05:35:43.425Z,89.05
2018-12-24T05:36:43.447Z,88.76
2018-12-24T05:37:43.463Z,88.39
2018-12-24T05:38:43.476Z,88.39
2018-12-24T05:39:43.492Z,88.76
2018-12-24T05:40:43.505Z,88.39
2018-12-24T05:41:43.526Z,88.67
2018-12-24T05:42:43.551Z,89.00
2018-12-24T05:43:49.444Z,88.81
2018-12-24T05:44:43.576Z,89.00
2018-12-24T05:45:43.595Z,88.39
2018-12-24T05:46:43.612Z,88.81
2018-12-24T05:47:43.644Z,88.24
2018-12-24T05:48:43.645Z,88.10
2018-12-24T05:49:43.655Z,88.43
2018-12-24T05:50:43.696Z,88.57
2018-12-24T05:51:43.697Z,88.81
2018-12-24T05:52:43.714Z,88.62
2018-12-24T05:53:43.723Z,88.24
2018-12-24T05:54:43.768Z,88.62
2018-12-24T05:55:43.770Z,88.90
2018-12-24T05:56:43.822Z,89.00
2018-12-24T05:57:43.800Z,89.76
2018-12-24T05:58:43.813Z,88.90
2018-12-24T05:59:43.825Z,89.76
2018-12-24T06:00:43.909Z,89.76
2018-12-24T06:01:43.881Z,89.00
2018-12-24T06:02:43.867Z,88.81
2018-12-24T06:03:43.917Z,89.47
2018-12-24T06:04:43.918Z,90.42
2018-12-24T06:05:43.923Z,89.09
2018-12-24T06:06:43.959Z,88.71
2018-12-24T06:07:43.952Z,89.19
2018-12-24T06:08:43.965Z,90.23
2018-12-24T06:09:43.985Z,89.28
2018-12-24T06:10:44.001Z,89.47
2018-12-24T06:11:44.025Z,89.09
2018-12-24T06:12:44.038Z,88.62
2018-12-24T06:13:44.051Z,88.57
2018-12-24T06:14:44.066Z,88.57
2018-12-24T06:15:44.093Z,88.43
2018-12-24T06:16:44.106Z,88.95
2018-12-24T06:17:44.113Z,88.95
2018-12-24T06:18:44.132Z,88.71
2018-12-24T06:19:44.166Z,88.62
2018-12-24T06:20:44.164Z,88.90
2018-12-24T06:21:44.183Z,88.71
2018-12-24T06:22:44.198Z,89.76
2018-12-24T06:23:44.216Z,89.76
2018-12-24T06:24:44.236Z,88.71
2018-12-24T06:25:44.266Z,89.28
2018-12-24T06:26:44.268Z,89.76
2018-12-24T06:27:44.276Z,89.00
2018-12-24T06:28:44.300Z,89.67
2018-12-24T06:29:44.366Z,89.28
2018-12-24T06:30:44.342Z,89.95
2018-12-24T06:31:44.345Z,89.57
2018-12-24T06:32:44.374Z,89.86
2018-12-24T06:33:44.388Z,89.95
2018-12-24T06:34:44.407Z,89.57
2018-12-24T06:35:44.437Z,89.28
2018-12-24T06:36:44.425Z,89.19
2018-12-24T06:37:44.447Z,89.67
2018-12-24T06:38:44.463Z,88.81
2018-12-24T06:39:44.474Z,88.62
2018-12-24T06:40:44.489Z,88.05
2018-12-24T06:41:44.509Z,88.53
2018-12-24T06:42:44.547Z,88.81
2018-12-24T06:43:44.541Z,88.62
2018-12-24T06:44:44.569Z,87.76
2018-12-24T06:45:44.581Z,88.43
2018-12-24T06:46:44.588Z,88.81
2018-12-24T06:47:44.610Z,88.43
2018-12-24T06:48:44.660Z,88.34
2018-12-24T06:49:44.645Z,88.53
2018-12-24T06:50:44.659Z,88.24
2018-12-24T06:51:44.671Z,88.62
2018-12-24T06:52:44.713Z,88.81
2018-12-24T06:53:44.715Z,88.05
2018-12-24T06:54:44.738Z,88.05
2018-12-24T06:55:44.748Z,87.67
2018-12-24T06:56:44.759Z,87.95
2018-12-24T06:57:44.769Z,87.86
2018-12-24T06:58:44.895Z,88.15
2018-12-24T06:59:44.811Z,88.62
2018-12-24T07:00:44.822Z,88.34
2018-12-24T07:01:44.848Z,87.48
2018-12-24T07:02:44.883Z,88.05
2018-12-24T07:03:44.886Z,87.86
2018-12-24T07:04:44.896Z,87.57
2018-12-24T07:05:44.921Z,87.95
2018-12-24T07:06:44.925Z,87.19
2018-12-24T07:07:44.940Z,85.96
2018-12-24T07:08:44.953Z,86.24
2018-12-24T07:09:44.972Z,86.91
2018-12-24T07:10:44.987Z,86.72
2018-12-24T07:11:45.003Z,86.63
2018-12-24T07:12:45.041Z,86.34
2018-12-24T07:13:45.043Z,86.63
2018-12-24T07:14:45.055Z,86.53
2018-12-24T07:15:45.076Z,86.53
2018-12-24T07:16:45.095Z,86.53
2018-12-24T07:17:45.108Z,85.68
2018-12-24T07:18:45.131Z,86.91
2018-12-24T07:19:45.134Z,87.29
2018-12-24T07:20:45.164Z,86.72
2018-12-24T07:21:45.174Z,87.86
2018-12-24T07:22:45.198Z,87.01
2018-12-24T07:23:45.202Z,86.91
2018-12-24T07:24:45.221Z,87.19
2018-12-24T07:25:45.235Z,87.76
2018-12-24T07:26:45.259Z,87.29
2018-12-24T07:27:45.269Z,87.29
2018-12-24T07:28:45.301Z,87.38
2018-12-24T07:29:45.299Z,87.95
2018-12-24T07:30:45.314Z,88.24
2018-12-24T07:31:45.360Z,87.01
2018-12-24T07:32:45.356Z,85.77
2018-12-24T07:33:45.369Z,86.53
2018-12-24T07:34:45.387Z,86.53
2018-12-24T07:35:45.396Z,86.43
2018-12-24T07:36:45.440Z,86.34
2018-12-24T07:37:45.448Z,86.53
2018-12-24T07:38:45.450Z,86.43
2018-12-24T07:39:45.466Z,87.76
2018-12-24T07:40:45.623Z,87.53
2018-12-24T07:41:45.513Z,88.05
2018-12-24T07:42:45.513Z,87.53
2018-12-24T07:43:45.541Z,87.34
2018-12-24T07:44:45.550Z,88.39
2018-12-24T07:45:45.568Z,88.01
2018-12-24T07:46:45.595Z,88.57
2018-12-24T07:47:45.601Z,88.10
2018-12-24T07:48:45.625Z,88.20
2018-12-24T07:49:45.640Z,88.01
2018-12-24T07:50:45.653Z,89.05
2018-12-24T07:51:45.674Z,88.29
2018-12-24T07:52:45.722Z,87.43
2018-12-24T07:53:45.710Z,88.01
2018-12-24T07:54:45.713Z,87.24
2018-12-24T07:55:45.731Z,86.87
2018-12-24T07:56:45.782Z,86.20
2018-12-24T07:57:45.775Z,88.10
2018-12-24T07:58:45.783Z,86.68
2018-12-24T07:59:45.793Z,88.01
2018-12-24T08:00:45.812Z,88.48
2018-12-24T08:01:45.826Z,88.29
2018-12-24T08:02:45.844Z,88.86
2018-12-24T08:03:45.860Z,88.39
2018-12-24T08:04:45.880Z,88.20
2018-12-24T08:05:45.899Z,87.82
2018-12-24T08:06:45.909Z,88.48
2018-12-24T08:07:45.927Z,87.82
2018-12-24T08:08:45.941Z,88.39
2018-12-24T08:09:45.960Z,88.67
2018-12-24T08:10:45.977Z,88.48
2018-12-24T08:11:45.992Z,88.86
2018-12-24T08:12:46.010Z,89.24
2018-12-24T08:13:46.027Z,88.95
2018-12-24T08:14:46.036Z,89.33
2018-12-24T08:15:46.059Z,88.76
2018-12-24T08:16:46.066Z,88.29
2018-12-24T08:17:46.087Z,88.20
2018-12-24T08:18:46.102Z,88.20
2018-12-24T08:19:46.123Z,88.20
2018-12-24T08:20:47.477Z,89.14
2018-12-24T08:21:46.149Z,88.95
2018-12-24T08:22:46.177Z,88.76
2018-12-24T08:23:46.180Z,87.72
2018-12-24T08:24:46.197Z,88.10
2018-12-24T08:25:46.212Z,88.29
2018-12-24T08:26:46.242Z,88.76
2018-12-24T08:27:46.259Z,88.57
2018-12-24T08:28:46.263Z,88.39
2018-12-24T08:29:46.284Z,88.20
2018-12-24T08:30:46.310Z,88.95
2018-12-24T08:31:46.313Z,88.57
2018-12-24T08:32:46.325Z,88.95
2018-12-24T08:33:46.351Z,88.10
2018-12-24T08:34:46.367Z,88.48
2018-12-24T08:35:46.385Z,88.76
2018-12-24T08:36:46.396Z,88.95
2018-12-24T08:37:46.427Z,88.29
2018-12-24T08:38:46.428Z,88.95
2018-12-24T08:39:46.494Z,88.95
2018-12-24T08:40:46.485Z,88.10
2018-12-24T08:41:46.478Z,88.57
2018-12-24T08:42:46.500Z,88.95
2018-12-24T08:43:46.516Z,89.05
2018-12-24T08:44:46.533Z,88.86
2018-12-24T08:45:46.547Z,88.57
2018-12-24T08:46:46.563Z,89.05
2018-12-24T08:47:46.579Z,90.47
2018-12-24T08:48:46.604Z,88.76
2018-12-24T08:49:46.620Z,88.48
2018-12-24T08:50:46.646Z,89.62
2018-12-24T08:51:46.655Z,89.05
2018-12-24T08:52:46.665Z,88.86
2018-12-24T08:53:46.677Z,89.14
2018-12-24T08:54:46.693Z,88.67
2018-12-24T08:55:46.708Z,88.76
2018-12-24T08:56:46.720Z,89.62
2018-12-24T08:57:46.736Z,88.29
2018-12-24T08:58:46.761Z,88.86
2018-12-24T08:59:46.770Z,89.05
2018-12-24T09:00:46.787Z,88.48
2018-12-24T09:01:46.801Z,88.76
2018-12-24T09:02:46.823Z,90.19
2018-12-24T09:03:46.831Z,89.81
2018-12-24T09:04:46.853Z,89.62
2018-12-24T09:05:46.872Z,89.14
2018-12-24T09:06:46.889Z,88.76
2018-12-24T09:07:46.902Z,89.33
2018-12-24T09:08:46.919Z,88.76
2018-12-24T09:09:46.949Z,89.72
2018-12-24T09:10:46.970Z,91.80
2018-12-24T09:11:46.967Z,88.57
2018-12-24T09:12:46.983Z,89.81
2018-12-24T09:13:47.004Z,89.72
2018-12-24T09:14:50.346Z,89.33
2018-12-24T09:15:47.044Z,88.48
2018-12-24T09:16:47.054Z,89.72
2018-12-24T09:17:47.071Z,89.14
2018-12-24T09:18:47.087Z,89.62
2018-12-24T09:19:47.107Z,90.28
2018-12-24T09:20:52.662Z,89.81
2018-12-24T09:21:47.148Z,91.04
2018-12-24T09:22:47.145Z,91.04
2018-12-24T09:23:47.158Z,91.89
2018-12-24T09:24:47.174Z,90.28
2018-12-24T09:25:47.197Z,90.95
2018-12-24T09:26:47.220Z,91.33
2018-12-24T09:27:47.235Z,92.85
2018-12-24T09:28:47.240Z,92.66
2018-12-24T09:29:47.261Z,91.80
2018-12-24T09:30:47.274Z,92.71
2018-12-24T09:31:47.296Z,91.52
2018-12-24T09:32:47.308Z,92.18
2018-12-24T09:33:47.324Z,91.99
2018-12-24T09:34:47.339Z,91.89
2018-12-24T09:35:47.363Z,91.33
2018-12-24T09:36:47.373Z,91.80
2018-12-24T09:37:47.391Z,92.85
2018-12-24T09:38:47.411Z,92.66
2018-12-24T09:39:47.429Z,91.89
2018-12-24T09:40:47.439Z,91.89
2018-12-24T09:41:47.461Z,92.28
2018-12-24T09:42:47.483Z,93.51
2018-12-24T09:43:47.489Z,93.60
2018-12-24T09:44:47.503Z,93.13
2018-12-24T09:45:47.519Z,93.04
2018-12-24T09:46:47.550Z,93.41
2018-12-24T09:47:47.558Z,93.80
2018-12-24T09:48:47.574Z,92.94
2018-12-24T09:49:47.602Z,93.04
2018-12-24T09:50:47.617Z,92.85
2018-12-24T09:51:47.649Z,92.37
2018-12-24T09:52:47.639Z,92.94
2018-12-24T09:53:47.798Z,92.75
2018-12-24T09:54:47.678Z,93.70
2018-12-24T09:55:47.705Z,92.52
2018-12-24T09:56:47.724Z,91.47
2018-12-24T09:57:47.730Z,93.46
2018-12-24T09:58:47.747Z,93.84
2018-12-24T09:59:47.753Z,93.18
2018-12-24T10:00:47.768Z,92.99
2018-12-24T10:01:47.783Z,93.27
2018-12-24T10:02:47.802Z,93.65
2018-12-24T10:03:47.838Z,92.33
2018-12-24T10:04:47.830Z,92.18
2018-12-24T10:05:47.851Z,91.99
2018-12-24T10:06:47.864Z,92.66
2018-12-24T10:07:47.893Z,93.46
2018-12-24T10:08:47.894Z,93.27
2018-12-24T10:09:47.916Z,92.61
2018-12-24T10:10:47.932Z,91.85
2018-12-24T10:11:47.945Z,92.23
2018-12-24T10:12:47.971Z,92.28
2018-12-24T10:13:47.976Z,91.56
2018-12-24T10:14:48.012Z,92.42
2018-12-24T10:15:48.009Z,92.71
2018-12-24T10:16:48.024Z,91.80
2018-12-24T10:17:48.040Z,91.42
2018-12-24T10:18:48.065Z,91.71
2018-12-24T10:19:48.071Z,91.33
2018-12-24T10:20:48.087Z,90.29
2018-12-24T10:21:48.102Z,91.71
2018-12-24T10:22:48.121Z,90.86
2018-12-24T10:23:48.155Z,92.33
2018-12-24T10:24:48.153Z,92.28
2018-12-24T10:25:48.163Z,92.28
2018-12-24T10:26:48.185Z,91.71
2018-12-24T10:27:48.218Z,91.61
2018-12-24T10:28:48.225Z,92.14
2018-12-24T10:29:48.231Z,91.75
2018-12-24T10:30:48.242Z,92.71
2018-12-24T10:31:48.266Z,91.80
2018-12-24T10:32:48.273Z,93.41
2018-12-24T10:33:48.286Z,93.89
2018-12-24T10:34:48.308Z,92.38
2018-12-24T10:35:48.331Z,92.28
2018-12-24T10:36:48.339Z,93.32
2018-12-24T10:37:48.352Z,92.85
2018-12-24T10:38:48.368Z,92.80
2018-12-24T10:39:48.413Z,92.42
2018-12-24T10:40:48.408Z,92.42
2018-12-24T10:41:48.418Z,92.71
2018-12-24T10:42:48.429Z,93.08
2018-12-24T10:43:48.445Z,93.65
2018-12-24T10:44:48.465Z,94.27
2018-12-24T10:45:48.478Z,93.13
2018-12-24T10:46:48.493Z,93.32
2018-12-24T10:47:48.551Z,93.61
2018-12-24T10:48:48.518Z,93.23
2018-12-24T10:49:48.540Z,92.38
2018-12-24T10:50:48.555Z,93.23
2018-12-24T10:51:48.568Z,93.27
2018-12-24T10:52:48.585Z,93.23
2018-12-24T10:53:48.622Z,92.85
2018-12-24T10:54:48.631Z,93.46
2018-12-24T10:55:48.630Z,93.56
2018-12-24T10:56:48.655Z,92.42
2018-12-24T10:57:48.666Z,92.80
2018-12-24T10:58:48.691Z,93.18
2018-12-24T10:59:48.696Z,93.23
2018-12-24T11:00:48.713Z,92.76
2018-12-24T11:01:48.727Z,92.94
2018-12-24T11:02:48.742Z,93.32
2018-12-24T11:03:48.755Z,92.38
2018-12-24T11:04:48.777Z,93.80
2018-12-24T11:05:48.794Z,93.32
2018-12-24T11:06:48.803Z,93.89
2018-12-24T11:07:48.822Z,93.61
2018-12-24T11:08:48.865Z,93.32
2018-12-24T11:09:48.847Z,93.51
2018-12-24T11:10:48.863Z,92.85
2018-12-24T11:11:48.888Z,93.51
2018-12-24T11:12:48.910Z,94.08
2018-12-24T11:13:48.917Z,92.85
2018-12-24T11:14:48.927Z,93.51
2018-12-24T11:15:48.958Z,93.32
2018-12-24T11:16:48.974Z,93.41
2018-12-24T11:17:48.974Z,93.13
2018-12-24T11:18:48.992Z,93.23
2018-12-24T11:19:49.008Z,93.70
2018-12-24T11:20:49.029Z,92.76
2018-12-24T11:21:49.039Z,93.61
2018-12-24T11:22:49.051Z,94.18
2018-12-24T11:23:49.070Z,93.80
2018-12-24T11:24:49.130Z,93.32
2018-12-24T11:25:49.113Z,93.70
2018-12-24T11:26:49.118Z,94.93
2018-12-24T11:27:49.131Z,93.41
2018-12-24T11:28:49.153Z,91.71
2018-12-24T11:29:49.192Z,92.57
2018-12-24T11:30:49.207Z,94.18
2018-12-24T11:31:49.200Z,94.56
2018-12-24T11:32:49.210Z,93.61
2018-12-24T11:33:49.221Z,94.08
2018-12-24T11:34:49.240Z,92.76
2018-12-24T11:35:49.256Z,93.70
2018-12-24T11:36:49.307Z,93.41
2018-12-24T11:37:49.288Z,93.99
2018-12-24T11:38:49.311Z,94.84
2018-12-24T11:39:49.317Z,93.89
2018-12-24T11:40:49.340Z,93.70
2018-12-24T11:41:49.349Z,93.65
2018-12-24T11:42:49.365Z,93.61
2018-12-24T11:43:49.387Z,94.65
2018-12-24T11:44:49.395Z,93.89
2018-12-24T11:45:49.417Z,94.27
2018-12-24T11:46:49.425Z,94.23
2018-12-24T11:47:49.457Z,93.75
2018-12-24T11:48:49.466Z,94.84
2018-12-24T11:49:49.483Z,96.22
2018-12-24T11:50:49.507Z,93.80
2018-12-24T11:51:49.505Z,94.03
2018-12-24T11:52:49.528Z,93.75
2018-12-24T11:53:49.549Z,95.46
2018-12-24T11:54:49.553Z,95.03
2018-12-24T11:55:49.572Z,93.80
2018-12-24T11:56:49.578Z,94.32
2018-12-24T11:57:49.601Z,96.36
2018-12-24T11:58:49.619Z,95.12
2018-12-24T11:59:49.642Z,94.08
2018-12-24T12:00:49.644Z,94.84
2018-12-24T12:01:49.661Z,95.03
2018-12-24T12:02:49.678Z,94.27
2018-12-24T12:03:49.694Z,95.79
2018-12-24T12:04:49.721Z,95.22
2018-12-24T12:05:49.727Z,94.93
2018-12-24T12:06:49.773Z,94.46
2018-12-24T12:07:49.755Z,95.60
2018-12-24T12:08:49.769Z,95.31
2018-12-24T12:09:49.792Z,94.93
2018-12-24T12:10:49.802Z,95.60
2018-12-24T12:11:49.824Z,94.56
2018-12-24T12:12:49.866Z,94.93
2018-12-24T12:13:49.852Z,94.56
2018-12-24T12:14:49.880Z,96.36
2018-12-24T12:15:49.890Z,95.79
2018-12-24T12:16:49.909Z,95.50
2018-12-24T12:17:49.914Z,95.98
2018-12-24T12:18:49.940Z,95.50
2018-12-24T12:19:49.949Z,95.41
2018-12-24T12:20:52.662Z,95.98
2018-12-24T12:21:49.984Z,96.17
2018-12-24T12:22:50.005Z,95.69
2018-12-24T12:23:50.027Z,96.08
2018-12-24T12:24:50.050Z,95.65
2018-12-24T12:25:50.062Z,95.46
2018-12-24T12:26:50.073Z,95.84
2018-12-24T12:27:50.118Z,96.55
2018-12-24T12:28:50.150Z,95.79
2018-12-24T12:29:50.117Z,95.22
2018-12-24T12:30:50.127Z,95.69
2018-12-24T12:31:51.175Z,96.17
2018-12-24T12:32:50.245Z,96.08
2018-12-24T12:33:50.191Z,95.60
2018-12-24T12:34:50.223Z,95.60
2018-12-24T12:35:50.214Z,95.50
2018-12-24T12:36:50.216Z,95.69
2018-12-24T12:37:50.246Z,94.93
2018-12-24T12:38:50.249Z,95.50
2018-12-24T12:39:50.269Z,96.08
2018-12-24T12:40:50.276Z,95.79
2018-12-24T12:41:50.306Z,95.98
2018-12-24T12:42:50.314Z,95.88
2018-12-24T12:43:50.371Z,96.88
2018-12-24T12:44:50.369Z,95.17
2018-12-24T12:45:51.424Z,96.26
2018-12-24T12:46:50.375Z,95.93
2018-12-24T12:47:50.393Z,95.88
2018-12-24T12:48:50.405Z,95.03
2018-12-24T12:49:50.428Z,95.79
2018-12-24T12:50:50.465Z,95.60
2018-12-24T12:51:50.462Z,95.88
2018-12-24T12:52:50.466Z,95.50